Aeroporto :
LOGIN :

Iscrizione | Disclaimer

   EN    FR    IT 

 










Sommario :    VFR   VFR Marginale   IFR   IFR Intensivo   IFR Molto Intensivo
Visibilità : 
Base nubi : 
>= 8 km
>= 3000ft
5 / 8 km
1000 / 3000 ft
1500m / 5 km
500 / 1000 ft
800 / 1500m
200 / 500 ft
< 800m
< 200 ft
Simboli :   Temporali  Nebbia  Neve Forte  Precipitazioni Forti  Vento > 20 kt
SIGMETs :   Varie  Temporali  Ghiacco  Turbolenza  Onda orograficha  Ceneri Vulcaniche






- Altitudine del aeroporto : 1345 ft
- Codice IATA : FRZ


ETHF - Fritzlar

ULTIMO METAR :
  • 280420Z 20006KT 9999 FEW015 BKN050 10/09 Q1017 BLU BLU

METARs OBSOLETI :
  • 280320Z 31002KT 9999 FEW015 11/10 Q1017 BLU+
  • 280220Z 26001KT 9999 SCT017 SCT120 12/11 Q1017 BLU+
  • 280120Z 36001KT 9999 BKN017 BKN150 12/11 Q1016 WHT
  • 280020Z 27002KT 9999 -RA FEW060 BKN240 12/11 Q1016 BLU+

TAF TAF ETHF
Valido dal 28 a 05 ore il 28 a 14 ore UTC


280420Z 2805/2814 26005KT 9999 NSW FEW015 BKN060
TEMPO 2810/2814 24008G22KT 9999 NSW FEW025 BKN070



MetMap, La meteo Aeronautica in un colpo d'occhio ! - Copyright ORBIFLY Dicembre 2007 - Disclaimer

ORBIFLY MET'MAP TEAM :

Programmazione e sviluppo : Alexandra Zaïnal
Concezione : Baudouin d'Aumeries
Supporto tecnico e logistico : Manuel Goepfert
Aiuto : Marc-Olivier Méhu
Aiuto per la traduzione : Arnaldo La Scala




FONTI E CREDITI :

   NOAA